• Join FlightAware (Why Join?)
  • Login
  • US Flag 
10:45AM EDT


 

Airport Tracker/Info


-or-


 

Live Flight TrackerFlight Track Log ✈ SWA4021 ✈ 24-Dec-2013 ✈ KSJC - KONT

Flight Track Log - Related Links

Times and Time Zones

All times are in EST time to prevent confusion due to time zone crossing. See the SWA4021 flight status page for this flight to view local times or setup timezone preferences in your user account.

Time Position Orientation Groundspeed Altitude Reporting Facility
EST Latitude Longitude Course Direction KTS MPH feet Rate Location/Type
01:06PM 37.3833 -121.9500 332° Northwest 154 177 1,700  Level Northern Cal TRACON
01:07PM 37.4333 -121.9833 332° Northwest 211 243 4,000 2,280 Climbing Northern Cal TRACON
01:08PM 37.4167 -121.9000 104° East 245 282 6,500 2,520 Climbing Northern Cal TRACON
01:09PM 37.3833 -121.8333 122° Southeast 267 307 9,100 2,820 Climbing Northern Cal TRACON
01:10PM 37.3219 -121.7814 146° Southeast 298 343 11,500 3,120 Climbing Oakland Center
01:11PM 37.2494 -121.6981 138° Southeast 346 398 15,000 3,060 Climbing Oakland Center
01:12PM 37.1739 -121.6117 138° Southeast 366 421 17,800 2,760 Climbing Oakland Center
01:13PM 37.0928 -121.5206 138° Southeast 389 448 20,700 2,700 Climbing Oakland Center
01:14PM 37.0122 -121.4339 139° Southeast 407 468 23,300 2,700 Climbing Oakland Center
01:15PM 36.9150 -121.3069 134° Southeast 421 484 26,200 2,400 Climbing Oakland Center
01:16PM 36.8369 -121.1900 130° Southeast 436 502 28,300 1,860 Climbing Oakland Center
01:17PM 36.7614 -121.0803 131° Southeast 448 516 30,000 1,800 Climbing Oakland Center
01:18PM 36.6781 -120.9575 130° Southeast 461 531 32,000 2,040 Climbing Oakland Center
01:19PM 36.5956 -120.8350 130° Southeast 460 529 34,200 1,680 Climbing Oakland Center
01:20PM 36.5133 -120.7133 130° Southeast 460 529 35,500 1,080 Climbing Oakland Center
01:21PM 36.4278 -120.5892 131° Southeast 470 541 36,500 720 Climbing Oakland Center
01:22PM 36.3214 -120.4356 131° Southeast 484 557 37,000 240 Climbing Oakland Center
01:23PM 36.2325 -120.3061 130° Southeast 490 564 37,000  Level Oakland Center
01:24PM 36.1433 -120.1747 130° Southeast 495 570 37,000  Level Oakland Center
01:25PM 36.0542 -120.0483 131° Southeast 490 564 37,000  Level Oakland Center
01:26PM 35.9636 -119.9189 131° Southeast 493 567 37,000  Level Oakland Center
01:27PM 35.8747 -119.7906 131° Southeast 491 565 37,000  Level Oakland Center
01:28PM 35.7839 -119.6628 131° Southeast 492 566 37,000  Level Oakland Center
01:29PM 35.6936 -119.5331 131° Southeast 495 570 37,000  Level Oakland Center
01:30PM 35.6042 -119.4081 131° Southeast 489 563 37,000  Level Oakland Center
01:31PM 35.5153 -119.2822 131° Southeast 487 560 37,000  Level Oakland Center
01:32PM 35.4264 -119.1575 131° Southeast 485 558 37,000  Level Oakland Center
01:33PM 35.3367 -119.0350 132° Southeast 482 555 37,000  Level Oakland Center
01:34PM 35.2489 -118.9103 131° Southeast 483 556 37,000 -780 Level Oakland Center
01:35PM 35.1428 -118.7644 132° Southeast 480 552 35,500 -2,220 Descending Oakland Center
01:36PM 35.0556 -118.6425 131° Southeast 477 549 32,500 -2,760 Descending Oakland Center
01:38PM 34.9336 -118.4744 131° Southeast 469 540 29,000 -2,460 Descending Los Angeles Center
01:39PM 34.8625 -118.3786 132° Southeast 462 532 26,600 -2,400 Descending Los Angeles Center
01:40PM 34.7642 -118.2444 132° Southeast 447 514 24,000 -2,400 Descending Los Angeles Center
01:41PM 34.6842 -118.1386 133° Southeast 431 496 21,700 -1,500 Descending Los Angeles Center
01:42PM 34.6144 -118.0311 128° Southeast 410 472 21,000 -780 Descending Los Angeles Center
01:43PM 34.5619 -117.9144 119° Southeast 399 459 20,100 -1,680 Descending Los Angeles Center
01:44PM 34.4983 -117.7756 119° Southeast 397 457 17,600 -2,400 Descending Los Angeles Center
01:45PM 34.4464 -117.6611 119° Southeast 391 450 15,200 -1,680 Descending Los Angeles Center
01:46PM 34.3969 -117.5547 119° Southeast 369 425 14,200 -1,020 Descending Los Angeles Center
01:47PM 34.3564 -117.4664 119° Southeast 327 376 13,100 -1,500 Descending Los Angeles Center
01:48PM 34.3058 -117.3575 119° Southeast 311 358 11,200 -1,680 Descending Los Angeles Center
01:49PM 34.2319 -117.3053 150° Southeast 309 356 9,700 -1,260 Descending Los Angeles Center
01:50PM 34.1550 -117.2628 155° Southeast 303 349 8,400 -1,320 Descending Los Angeles Center
01:51PM 34.0622 -117.2761 187° South 296 341 6,800 -1,680 Descending Los Angeles Center
01:52PM 34.0556 -117.3614 265° West 276 318 5,000 -1,500 Descending Los Angeles Center
01:53PM 34.0500 -117.4500 266° West 188 216 3,700 -1,380 Descending Southern California TRACON
01:54PM 34.0500 -117.5167 270° West 167 192 2,200 -1,200 Descending Southern California TRACON
01:55PM 34.0500 -117.5667 270° West 143 165 1,300 -900 Descending Southern California TRACON
01:58PM 34.0500 -117.6000 270° West  Level FlightAware Approximate
02:05PM 34.0560 -117.6012 270° West  Level Estimated